Terminal Aerodrome Forecast
Issued by NWS

Home | Current Version | Previous Version | Text Only | Print | Product List | Glossary Off
Versions: 1 2 3 4 5 6 7 8 9 10 11 12 13 14 15 16 17 18 19 20

000
FTUS43 KMPX 301100
TAFRNH
TAF
KRNH 301138Z 3012/3112 00000KT P6SM VCSH BKN008 BKN015
     FM301650 35004KT P6SM SCT010 OVC020
     FM301800 36005KT P6SM BKN025
     FM302100 VRB03KT P6SM SCT025 OVC040
     FM310300 00000KT P6SM FEW250
     FM310900 13003KT 2SM BR FEW003 SCT250=

USA.gov is the U.S. government's official web portal to all federal, state and local government web resources and services.